sensor_id;sensor_type;location;lat;lon;timestamp;pressure;altitude;pressure_sealevel;temperature;humidity
39243;BME280;29823;47.404;8.566;2023-02-13T00:00:25;98237.50;;;3.49;100.00
39243;BME280;29823;47.404;8.566;2023-02-13T00:02:53;98239.84;;;3.52;100.00
39243;BME280;29823;47.404;8.566;2023-02-13T00:05:21;98241.22;;;3.56;100.00
39243;BME280;29823;47.404;8.566;2023-02-13T00:07:49;98232.03;;;3.60;100.00
39243;BME280;29823;47.404;8.566;2023-02-13T00:10:17;98239.31;;;3.49;100.00
39243;BME280;29823;47.404;8.566;2023-02-13T00:12:45;98221.78;;;3.48;100.00
39243;BME280;29823;47.404;8.566;2023-02-13T00:15:14;98240.00;;;3.51;100.00
39243;BME280;29823;47.404;8.566;2023-02-13T00:17:42;98233.75;;;3.52;100.00
39243;BME280;29823;47.404;8.566;2023-02-13T00:20:11;98227.47;;;3.53;100.00
39243;BME280;29823;47.404;8.566;2023-02-13T00:22:39;98230.84;;;3.45;100.00
39243;BME280;29823;47.404;8.566;2023-02-13T00:25:07;98229.19;;;3.44;100.00
39243;BME280;29823;47.404;8.566;2023-02-13T00:27:36;98234.47;;;3.44;100.00
39243;BME280;29823;47.404;8.566;2023-02-13T00:30:05;98236.66;;;3.49;100.00
39243;BME280;29823;47.404;8.566;2023-02-13T00:32:34;98237.78;;;3.46;100.00
39243;BME280;29823;47.404;8.566;2023-02-13T00:35:02;98239.84;;;3.52;100.00
39243;BME280;29823;47.404;8.566;2023-02-13T00:37:30;98224.97;;;3.51;100.00
39243;BME280;29823;47.404;8.566;2023-02-13T00:39:57;98234.13;;;3.57;100.00
39243;BME280;29823;47.404;8.566;2023-02-13T00:42:25;98242.50;;;3.52;100.00
39243;BME280;29823;47.404;8.566;2023-02-13T00:44:53;98224.75;;;3.35;100.00
39243;BME280;29823;47.404;8.566;2023-02-13T00:47:21;98243.06;;;3.46;100.00
39243;BME280;29823;47.404;8.566;2023-02-13T00:49:50;98244.72;;;3.47;100.00
39243;BME280;29823;47.404;8.566;2023-02-13T00:52:18;98230.88;;;3.36;100.00
39243;BME280;29823;47.404;8.566;2023-02-13T00:54:46;98243.38;;;3.43;100.00
39243;BME280;29823;47.404;8.566;2023-02-13T00:57:14;98249.94;;;3.39;100.00
39243;BME280;29823;47.404;8.566;2023-02-13T00:59:42;98243.84;;;3.29;100.00
39243;BME280;29823;47.404;8.566;2023-02-13T01:02:09;98250.59;;;3.41;100.00
39243;BME280;29823;47.404;8.566;2023-02-13T01:04:37;98247.56;;;3.36;100.00
39243;BME280;29823;47.404;8.566;2023-02-13T01:07:06;98246.47;;;3.29;100.00
39243;BME280;29823;47.404;8.566;2023-02-13T01:09:34;98252.13;;;3.53;100.00
39243;BME280;29823;47.404;8.566;2023-02-13T01:12:03;98249.66;;;3.42;100.00
39243;BME280;29823;47.404;8.566;2023-02-13T01:14:30;98253.25;;;3.41;100.00
39243;BME280;29823;47.404;8.566;2023-02-13T01:16:58;98248.03;;;3.22;100.00
39243;BME280;29823;47.404;8.566;2023-02-13T01:19:26;98240.81;;;3.15;100.00
39243;BME280;29823;47.404;8.566;2023-02-13T01:21:54;98241.50;;;3.17;100.00
39243;BME280;29823;47.404;8.566;2023-02-13T01:24:23;98237.22;;;3.06;100.00
39243;BME280;29823;47.404;8.566;2023-02-13T01:26:55;98237.78;;;3.10;100.00
39243;BME280;29823;47.404;8.566;2023-02-13T01:29:23;98247.72;;;3.25;100.00
39243;BME280;29823;47.404;8.566;2023-02-13T01:31:51;98250.38;;;3.35;100.00
39243;BME280;29823;47.404;8.566;2023-02-13T01:34:19;98240.97;;;3.13;100.00
39243;BME280;29823;47.404;8.566;2023-02-13T01:36:46;98258.56;;;3.32;100.00
39243;BME280;29823;47.404;8.566;2023-02-13T01:39:14;98265.22;;;3.45;100.00
39243;BME280;29823;47.404;8.566;2023-02-13T01:41:43;98221.06;;;3.19;100.00
39243;BME280;29823;47.404;8.566;2023-02-13T01:44:46;98260.09;;;3.34;100.00
39243;BME280;29823;47.404;8.566;2023-02-13T01:47:17;98251.25;;;3.16;100.00
39243;BME280;29823;47.404;8.566;2023-02-13T01:49:47;98245.56;;;3.11;100.00
39243;BME280;29823;47.404;8.566;2023-02-13T01:52:17;98262.41;;;3.10;100.00
39243;BME280;29823;47.404;8.566;2023-02-13T01:54:45;98258.78;;;3.11;100.00
39243;BME280;29823;47.404;8.566;2023-02-13T01:57:17;98252.78;;;3.09;100.00
39243;BME280;29823;47.404;8.566;2023-02-13T01:59:51;98251.13;;;3.08;100.00
39243;BME280;29823;47.404;8.566;2023-02-13T02:02:20;98250.16;;;3.09;100.00
39243;BME280;29823;47.404;8.566;2023-02-13T02:04:48;98261.69;;;3.18;100.00
39243;BME280;29823;47.404;8.566;2023-02-13T02:07:19;98255.72;;;3.06;100.00
39243;BME280;29823;47.404;8.566;2023-02-13T02:09:48;98257.13;;;3.10;100.00
39243;BME280;29823;47.404;8.566;2023-02-13T02:12:24;98256.81;;;3.13;100.00
39243;BME280;29823;47.404;8.566;2023-02-13T02:14:54;98254.34;;;3.02;100.00
39243;BME280;29823;47.404;8.566;2023-02-13T02:17:25;98265.88;;;3.01;100.00
39243;BME280;29823;47.404;8.566;2023-02-13T02:19:58;98264.38;;;2.99;100.00
39243;BME280;29823;47.404;8.566;2023-02-13T02:26:07;98259.09;;;2.80;100.00
39243;BME280;29823;47.404;8.566;2023-02-13T02:29:05;98263.44;;;2.81;100.00
39243;BME280;29823;47.404;8.566;2023-02-13T02:32:02;98266.31;;;2.87;100.00
39243;BME280;29823;47.404;8.566;2023-02-13T02:34:41;98255.63;;;2.79;100.00
39243;BME280;29823;47.404;8.566;2023-02-13T02:37:24;98267.28;;;2.86;100.00
39243;BME280;29823;47.404;8.566;2023-02-13T02:40:06;98256.88;;;2.75;100.00
39243;BME280;29823;47.404;8.566;2023-02-13T02:42:48;98259.38;;;2.77;100.00
39243;BME280;29823;47.404;8.566;2023-02-13T02:45:22;98266.63;;;2.84;100.00
39243;BME280;29823;47.404;8.566;2023-02-13T02:47:57;98260.19;;;2.77;100.00
39243;BME280;29823;47.404;8.566;2023-02-13T02:50:48;98266.31;;;2.87;100.00
39243;BME280;29823;47.404;8.566;2023-02-13T02:53:28;98268.84;;;2.79;100.00
39243;BME280;29823;47.404;8.566;2023-02-13T02:56:03;98253.81;;;2.70;100.00
39243;BME280;29823;47.404;8.566;2023-02-13T02:58:36;98272.31;;;2.70;100.00
39243;BME280;29823;47.404;8.566;2023-02-13T03:01:24;98278.81;;;2.95;100.00
39243;BME280;29823;47.404;8.566;2023-02-13T03:04:25;98274.38;;;2.76;100.00
39243;BME280;29823;47.404;8.566;2023-02-13T03:07:15;98272.47;;;2.78;100.00
39243;BME280;29823;47.404;8.566;2023-02-13T03:09:47;98271.59;;;2.87;100.00
39243;BME280;29823;47.404;8.566;2023-02-13T03:12:46;98267.44;;;2.85;100.00
39243;BME280;29823;47.404;8.566;2023-02-13T03:15:43;98273.28;;;2.79;100.00
39243;BME280;29823;47.404;8.566;2023-02-13T03:18:26;98279.00;;;2.74;100.00
39243;BME280;29823;47.404;8.566;2023-02-13T03:21:16;98270.09;;;2.66;100.00
39243;BME280;29823;47.404;8.566;2023-02-13T03:24:16;98275.66;;;2.72;100.00
39243;BME280;29823;47.404;8.566;2023-02-13T03:26:56;98284.38;;;2.82;100.00
39243;BME280;29823;47.404;8.566;2023-02-13T03:29:38;98282.06;;;2.79;100.00
39243;BME280;29823;47.404;8.566;2023-02-13T03:32:32;98284.28;;;2.74;100.00
39243;BME280;29823;47.404;8.566;2023-02-13T03:35:15;98286.50;;;2.88;100.00
39243;BME280;29823;47.404;8.566;2023-02-13T03:38:10;98282.47;;;2.84;100.00
39243;BME280;29823;47.404;8.566;2023-02-13T03:40:46;98277.19;;;2.75;100.00
39243;BME280;29823;47.404;8.566;2023-02-13T03:43:31;98286.34;;;2.80;100.00
39243;BME280;29823;47.404;8.566;2023-02-13T03:46:03;98281.91;;;2.71;100.00
39243;BME280;29823;47.404;8.566;2023-02-13T03:48:35;98296.63;;;2.74;100.00
39243;BME280;29823;47.404;8.566;2023-02-13T03:51:24;98290.09;;;2.87;100.00
39243;BME280;29823;47.404;8.566;2023-02-13T03:53:58;98309.44;;;2.78;100.00
39243;BME280;29823;47.404;8.566;2023-02-13T03:56:29;98317.34;;;2.88;100.00
39243;BME280;29823;47.404;8.566;2023-02-13T03:59:21;98311.78;;;2.81;100.00
39243;BME280;29823;47.404;8.566;2023-02-13T04:01:53;98320.84;;;2.88;100.00
39243;BME280;29823;47.404;8.566;2023-02-13T04:04:30;98305.38;;;2.93;100.00
39243;BME280;29823;47.404;8.566;2023-02-13T04:07:03;98310.53;;;2.85;100.00
39243;BME280;29823;47.404;8.566;2023-02-13T04:09:35;98312.78;;;2.99;100.00
39243;BME280;29823;47.404;8.566;2023-02-13T04:12:08;98320.56;;;2.72;100.00
39243;BME280;29823;47.404;8.566;2023-02-13T04:14:46;98317.91;;;2.91;100.00
39243;BME280;29823;47.404;8.566;2023-02-13T04:17:19;98324.97;;;2.91;100.00
39243;BME280;29823;47.404;8.566;2023-02-13T04:19:50;98321.09;;;2.95;100.00
39243;BME280;29823;47.404;8.566;2023-02-13T04:22:18;98321.78;;;2.87;100.00
39243;BME280;29823;47.404;8.566;2023-02-13T04:24:47;98296.91;;;2.90;100.00
39243;BME280;29823;47.404;8.566;2023-02-13T04:27:15;98316.78;;;2.94;100.00
39243;BME280;29823;47.404;8.566;2023-02-13T04:29:44;98318.06;;;2.99;100.00
39243;BME280;29823;47.404;8.566;2023-02-13T04:32:12;98318.59;;;2.93;100.00
39243;BME280;29823;47.404;8.566;2023-02-13T04:34:40;98318.59;;;3.03;100.00
39243;BME280;29823;47.404;8.566;2023-02-13T04:37:08;98315.94;;;3.12;100.00
39243;BME280;29823;47.404;8.566;2023-02-13T04:39:36;98317.19;;;3.08;100.00
39243;BME280;29823;47.404;8.566;2023-02-13T04:42:05;98312.88;;;3.07;100.00
39243;BME280;29823;47.404;8.566;2023-02-13T04:44:33;98313.28;;;3.12;100.00
39243;BME280;29823;47.404;8.566;2023-02-13T04:47:01;98305.81;;;3.08;100.00
39243;BME280;29823;47.404;8.566;2023-02-13T04:49:28;98319.41;;;3.03;100.00
39243;BME280;29823;47.404;8.566;2023-02-13T04:51:56;98310.81;;;3.01;100.00
39243;BME280;29823;47.404;8.566;2023-02-13T04:54:24;98312.91;;;2.98;100.00
39243;BME280;29823;47.404;8.566;2023-02-13T04:56:52;98320.53;;;3.01;100.00
39243;BME280;29823;47.404;8.566;2023-02-13T04:59:21;98295.09;;;2.90;100.00
39243;BME280;29823;47.404;8.566;2023-02-13T05:01:49;98318.84;;;3.09;100.00
39243;BME280;29823;47.404;8.566;2023-02-13T05:04:17;98314.44;;;3.00;100.00
39243;BME280;29823;47.404;8.566;2023-02-13T05:06:44;98318.44;;;3.04;100.00
39243;BME280;29823;47.404;8.566;2023-02-13T05:09:12;98320.97;;;3.15;100.00
39243;BME280;29823;47.404;8.566;2023-02-13T05:11:40;98323.47;;;2.98;100.00
39243;BME280;29823;47.404;8.566;2023-02-13T05:14:08;98329.16;;;2.93;100.00
39243;BME280;29823;47.404;8.566;2023-02-13T05:16:38;98329.88;;;2.95;100.00
39243;BME280;29823;47.404;8.566;2023-02-13T05:19:05;98325.69;;;3.02;100.00
39243;BME280;29823;47.404;8.566;2023-02-13T05:21:33;98323.88;;;2.84;100.00
39243;BME280;29823;47.404;8.566;2023-02-13T05:24:18;98327.78;;;2.89;100.00
39243;BME280;29823;47.404;8.566;2023-02-13T05:26:46;98335.41;;;3.11;100.00
39243;BME280;29823;47.404;8.566;2023-02-13T05:29:14;98319.69;;;3.10;100.00
39243;BME280;29823;47.404;8.566;2023-02-13T05:31:51;98323.44;;;3.17;100.00
39243;BME280;29823;47.404;8.566;2023-02-13T05:34:20;98330.25;;;3.19;100.00
39243;BME280;29823;47.404;8.566;2023-02-13T05:36:49;98320.09;;;3.15;100.00
39243;BME280;29823;47.404;8.566;2023-02-13T05:39:17;98324.69;;;3.22;100.00
39243;BME280;29823;47.404;8.566;2023-02-13T05:41:46;98313.44;;;3.01;100.00
39243;BME280;29823;47.404;8.566;2023-02-13T05:44:14;98317.31;;;3.07;100.00
39243;BME280;29823;47.404;8.566;2023-02-13T05:46:43;98324.72;;;3.13;100.00
39243;BME280;29823;47.404;8.566;2023-02-13T05:49:13;98318.72;;;3.01;100.00
39243;BME280;29823;47.404;8.566;2023-02-13T05:51:42;98270.53;;;2.71;100.00
39243;BME280;29823;47.404;8.566;2023-02-13T05:54:11;98331.94;;;3.11;100.00
39243;BME280;29823;47.404;8.566;2023-02-13T05:56:39;98331.53;;;3.15;100.00
39243;BME280;29823;47.404;8.566;2023-02-13T05:59:07;98335.78;;;3.35;100.00
39243;BME280;29823;47.404;8.566;2023-02-13T06:01:35;98313.28;;;3.22;100.00
39243;BME280;29823;47.404;8.566;2023-02-13T06:04:03;98329.34;;;3.47;100.00
39243;BME280;29823;47.404;8.566;2023-02-13T06:06:33;98333.41;;;3.42;100.00
39243;BME280;29823;47.404;8.566;2023-02-13T06:09:01;98340.50;;;3.51;100.00
39243;BME280;29823;47.404;8.566;2023-02-13T06:11:28;98328.13;;;3.42;100.00
39243;BME280;29823;47.404;8.566;2023-02-13T06:13:56;98340.78;;;3.48;100.00
39243;BME280;29823;47.404;8.566;2023-02-13T06:16:24;98336.91;;;3.42;100.00
39243;BME280;29823;47.404;8.566;2023-02-13T06:18:52;98344.25;;;3.48;100.00
39243;BME280;29823;47.404;8.566;2023-02-13T06:21:19;98342.03;;;3.44;100.00
39243;BME280;29823;47.404;8.566;2023-02-13T06:23:49;98344.69;;;3.34;100.00
39243;BME280;29823;47.404;8.566;2023-02-13T06:26:17;98343.31;;;3.30;100.00
39243;BME280;29823;47.404;8.566;2023-02-13T06:28:45;98355.28;;;3.34;100.00
39243;BME280;29823;47.404;8.566;2023-02-13T06:31:13;98353.38;;;3.63;100.00
39243;BME280;29823;47.404;8.566;2023-02-13T06:33:41;98355.53;;;3.50;100.00
39243;BME280;29823;47.404;8.566;2023-02-13T06:36:09;98355.63;;;3.68;100.00
39243;BME280;29823;47.404;8.566;2023-02-13T06:38:37;98358.00;;;3.61;100.00
39243;BME280;29823;47.404;8.566;2023-02-13T06:41:06;98350.22;;;3.50;100.00
39243;BME280;29823;47.404;8.566;2023-02-13T06:43:34;98354.00;;;3.48;100.00
39243;BME280;29823;47.404;8.566;2023-02-13T06:46:05;98356.53;;;3.40;100.00
39243;BME280;29823;47.404;8.566;2023-02-13T06:48:33;98364.59;;;3.38;100.00
39243;BME280;29823;47.404;8.566;2023-02-13T06:51:02;98358.91;;;3.33;100.00
39243;BME280;29823;47.404;8.566;2023-02-13T06:53:30;98368.50;;;3.34;100.00
39243;BME280;29823;47.404;8.566;2023-02-13T06:55:58;98365.88;;;3.25;100.00
39243;BME280;29823;47.404;8.566;2023-02-13T06:58:27;98371.69;;;3.09;100.00
39243;BME280;29823;47.404;8.566;2023-02-13T07:00:54;98372.94;;;3.24;100.00
39243;BME280;29823;47.404;8.566;2023-02-13T07:03:23;98372.25;;;3.22;100.00
39243;BME280;29823;47.404;8.566;2023-02-13T07:05:51;98374.19;;;3.20;100.00
39243;BME280;29823;47.404;8.566;2023-02-13T07:08:18;98373.66;;;3.26;100.00
39243;BME280;29823;47.404;8.566;2023-02-13T07:10:46;98374.22;;;3.11;100.00
39243;BME280;29823;47.404;8.566;2023-02-13T07:13:14;98371.69;;;3.09;100.00
39243;BME280;29823;47.404;8.566;2023-02-13T07:15:43;98379.38;;;3.12;100.00
39243;BME280;29823;47.404;8.566;2023-02-13T07:18:11;98378.94;;;3.17;100.00
39243;BME280;29823;47.404;8.566;2023-02-13T07:20:39;98377.56;;;3.22;100.00
39243;BME280;29823;47.404;8.566;2023-02-13T07:23:07;98351.38;;;3.19;100.00
39243;BME280;29823;47.404;8.566;2023-02-13T07:25:35;98365.88;;;3.15;100.00
39243;BME280;29823;47.404;8.566;2023-02-13T07:28:04;98360.31;;;3.18;100.00
39243;BME280;29823;47.404;8.566;2023-02-13T07:30:33;98379.22;;;3.23;100.00
39243;BME280;29823;47.404;8.566;2023-02-13T07:33:03;98375.19;;;3.29;100.00
39243;BME280;29823;47.404;8.566;2023-02-13T07:35:31;98377.81;;;3.38;100.00
39243;BME280;29823;47.404;8.566;2023-02-13T07:38:01;98379.91;;;3.35;100.00
39243;BME280;29823;47.404;8.566;2023-02-13T07:40:29;98388.41;;;3.29;100.00
39243;BME280;29823;47.404;8.566;2023-02-13T07:42:59;98387.56;;;3.28;100.00
39243;BME280;29823;47.404;8.566;2023-02-13T07:45:27;98387.41;;;3.39;100.00
39243;BME280;29823;47.404;8.566;2023-02-13T07:47:55;98382.13;;;3.39;100.00
39243;BME280;29823;47.404;8.566;2023-02-13T07:50:25;98387.53;;;3.38;100.00
39243;BME280;29823;47.404;8.566;2023-02-13T07:52:53;98402.41;;;3.58;100.00
39243;BME280;29823;47.404;8.566;2023-02-13T07:55:22;98391.97;;;3.56;100.00
39243;BME280;29823;47.404;8.566;2023-02-13T07:57:50;98394.19;;;3.70;100.00
39243;BME280;29823;47.404;8.566;2023-02-13T08:00:19;98386.81;;;3.64;100.00
39243;BME280;29823;47.404;8.566;2023-02-13T08:02:47;98388.66;;;3.45;100.00
39243;BME280;29823;47.404;8.566;2023-02-13T08:05:15;98385.84;;;3.46;100.00
39243;BME280;29823;47.404;8.566;2023-02-13T08:07:44;98389.47;;;3.45;100.00
39243;BME280;29823;47.404;8.566;2023-02-13T08:10:13;98383.50;;;3.34;100.00
39243;BME280;29823;47.404;8.566;2023-02-13T08:12:59;98389.47;;;3.55;100.00
39243;BME280;29823;47.404;8.566;2023-02-13T08:15:27;98382.50;;;3.54;100.00
39243;BME280;29823;47.404;8.566;2023-02-13T08:17:54;98397.25;;;3.56;100.00
39243;BME280;29823;47.404;8.566;2023-02-13T08:20:22;98395.44;;;3.66;100.00
39243;BME280;29823;47.404;8.566;2023-02-13T08:22:52;98382.56;;;3.81;100.00
39243;BME280;29823;47.404;8.566;2023-02-13T08:25:19;98386.47;;;3.86;100.00
39243;BME280;29823;47.404;8.566;2023-02-13T08:27:47;98390.22;;;3.93;100.00
39243;BME280;29823;47.404;8.566;2023-02-13T08:30:15;98387.84;;;3.90;100.00
39243;BME280;29823;47.404;8.566;2023-02-13T08:32:43;98399.97;;;3.83;100.00
39243;BME280;29823;47.404;8.566;2023-02-13T08:35:20;98391.72;;;3.96;100.00
39243;BME280;29823;47.404;8.566;2023-02-13T08:37:53;98396.88;;;3.97;100.00
39243;BME280;29823;47.404;8.566;2023-02-13T08:40:20;98386.66;;;3.75;100.00
39243;BME280;29823;47.404;8.566;2023-02-13T08:42:51;98391.94;;;3.75;100.00
39243;BME280;29823;47.404;8.566;2023-02-13T08:45:20;98392.75;;;3.85;100.00
39243;BME280;29823;47.404;8.566;2023-02-13T08:47:49;98391.06;;;3.94;100.00
39243;BME280;29823;47.404;8.566;2023-02-13T08:50:17;98392.59;;;3.87;100.00
39243;BME280;29823;47.404;8.566;2023-02-13T08:52:45;98378.28;;;3.80;100.00
39243;BME280;29823;47.404;8.566;2023-02-13T08:55:14;98381.19;;;3.77;100.00
39243;BME280;29823;47.404;8.566;2023-02-13T08:57:42;98393.53;;;3.95;100.00
39243;BME280;29823;47.404;8.566;2023-02-13T09:00:11;98395.78;;;3.90;100.00
39243;BME280;29823;47.404;8.566;2023-02-13T09:02:39;98396.31;;;4.03;100.00
39243;BME280;29823;47.404;8.566;2023-02-13T09:05:07;98389.13;;;3.86;100.00
39243;BME280;29823;47.404;8.566;2023-02-13T09:07:34;98410.56;;;3.83;100.00
39243;BME280;29823;47.404;8.566;2023-02-13T09:10:02;98406.03;;;4.12;100.00
39243;BME280;29823;47.404;8.566;2023-02-13T09:12:32;98407.16;;;4.00;100.00
39243;BME280;29823;47.404;8.566;2023-02-13T09:15:00;98394.59;;;4.12;100.00
39243;BME280;29823;47.404;8.566;2023-02-13T09:17:28;98406.03;;;4.12;100.00
39243;BME280;29823;47.404;8.566;2023-02-13T09:19:56;98397.88;;;3.96;100.00
39243;BME280;29823;47.404;8.566;2023-02-13T09:22:23;98408.19;;;4.26;100.00
39243;BME280;29823;47.404;8.566;2023-02-13T09:24:51;98413.47;;;4.26;100.00
39243;BME280;29823;47.404;8.566;2023-02-13T09:27:19;98412.47;;;4.00;100.00
39243;BME280;29823;47.404;8.566;2023-02-13T09:29:48;98413.44;;;3.99;100.00
39243;BME280;29823;47.404;8.566;2023-02-13T09:32:16;98410.44;;;4.21;100.00
39243;BME280;29823;47.404;8.566;2023-02-13T09:34:44;98420.28;;;4.29;100.00
39243;BME280;29823;47.404;8.566;2023-02-13T09:37:12;98411.03;;;4.42;100.00
39243;BME280;29823;47.404;8.566;2023-02-13T09:39:40;98395.25;;;4.23;100.00
39243;BME280;29823;47.404;8.566;2023-02-13T09:42:16;98421.19;;;4.47;100.00
39243;BME280;29823;47.404;8.566;2023-02-13T09:44:49;98412.63;;;4.35;100.00
39243;BME280;29823;47.404;8.566;2023-02-13T09:47:27;98404.41;;;4.56;100.00
39243;BME280;29823;47.404;8.566;2023-02-13T09:49:58;98418.59;;;4.64;100.00
39243;BME280;29823;47.404;8.566;2023-02-13T09:52:30;98417.97;;;4.53;100.00
39243;BME280;29823;47.404;8.566;2023-02-13T09:54:59;98409.38;;;4.68;100.00
39243;BME280;29823;47.404;8.566;2023-02-13T09:57:30;98419.50;;;4.55;100.00
39243;BME280;29823;47.404;8.566;2023-02-13T10:00:06;98412.75;;;3.97;100.00
39243;BME280;29823;47.404;8.566;2023-02-13T10:02:58;98410.84;;;4.26;100.00
39243;BME280;29823;47.404;8.566;2023-02-13T10:05:50;98409.22;;;4.43;100.00
39243;BME280;29823;47.404;8.566;2023-02-13T10:08:32;98412.34;;;4.29;100.00
39243;BME280;29823;47.404;8.566;2023-02-13T10:11:10;98417.31;;;4.41;100.00
39243;BME280;29823;47.404;8.566;2023-02-13T10:13:51;98417.25;;;4.24;100.00
39243;BME280;29823;47.404;8.566;2023-02-13T10:16:24;98414.88;;;4.30;100.00
39243;BME280;29823;47.404;8.566;2023-02-13T10:18:56;98405.97;;;3.85;100.00
39243;BME280;29823;47.404;8.566;2023-02-13T10:21:29;98405.94;;;3.95;100.00
39243;BME280;29823;47.404;8.566;2023-02-13T10:24:04;98412.88;;;4.32;100.00
39243;BME280;29823;47.404;8.566;2023-02-13T10:26:37;98409.38;;;4.41;100.00
39243;BME280;29823;47.404;8.566;2023-02-13T10:29:14;98416.53;;;4.31;100.00
39243;BME280;29823;47.404;8.566;2023-02-13T10:32:08;98400.63;;;4.31;100.00
39243;BME280;29823;47.404;8.566;2023-02-13T10:34:42;98409.63;;;4.21;100.00
39243;BME280;29823;47.404;8.566;2023-02-13T10:37:13;98397.25;;;4.39;100.00
39243;BME280;29823;47.404;8.566;2023-02-13T10:39:43;98401.63;;;4.57;100.00
39243;BME280;29823;47.404;8.566;2023-02-13T10:42:19;98379.53;;;4.66;100.00
39243;BME280;29823;47.404;8.566;2023-02-13T10:44:56;98391.47;;;4.53;100.00
39243;BME280;29823;47.404;8.566;2023-02-13T10:47:38;98374.94;;;4.14;100.00
39243;BME280;29823;47.404;8.566;2023-02-13T10:50:14;98385.00;;;4.38;100.00
39243;BME280;29823;47.404;8.566;2023-02-13T10:52:50;98396.13;;;4.41;100.00
39243;BME280;29823;47.404;8.566;2023-02-13T10:55:48;98390.72;;;4.60;100.00
39243;BME280;29823;47.404;8.566;2023-02-13T10:58:18;98361.06;;;4.30;100.00
39243;BME280;29823;47.404;8.566;2023-02-13T11:00:52;98374.06;;;4.50;100.00
39243;BME280;29823;47.404;8.566;2023-02-13T11:03:24;98382.56;;;4.89;100.00
39243;BME280;29823;47.404;8.566;2023-02-13T11:05:53;98378.72;;;4.83;100.00
39243;BME280;29823;47.404;8.566;2023-02-13T11:08:25;98375.63;;;5.05;100.00
39243;BME280;29823;47.404;8.566;2023-02-13T11:10:53;98370.31;;;4.88;100.00
39243;BME280;29823;47.404;8.566;2023-02-13T11:13:22;98369.50;;;4.60;100.00
39243;BME280;29823;47.404;8.566;2023-02-13T11:15:59;98363.88;;;4.73;100.00
39243;BME280;29823;47.404;8.566;2023-02-13T11:18:32;98360.91;;;4.58;100.00
39243;BME280;29823;47.404;8.566;2023-02-13T11:21:01;98369.66;;;4.41;100.00
39243;BME280;29823;47.404;8.566;2023-02-13T11:23:34;98367.03;;;4.76;100.00
39243;BME280;29823;47.404;8.566;2023-02-13T11:26:05;98359.25;;;4.57;100.00
39243;BME280;29823;47.404;8.566;2023-02-13T11:28:37;98357.50;;;4.66;100.00
39243;BME280;29823;47.404;8.566;2023-02-13T11:31:21;98367.22;;;4.75;100.00
39243;BME280;29823;47.404;8.566;2023-02-13T11:33:51;98350.69;;;4.63;100.00
39243;BME280;29823;47.404;8.566;2023-02-13T11:36:25;98369.94;;;4.83;100.00
39243;BME280;29823;47.404;8.566;2023-02-13T11:38:59;98335.06;;;4.60;100.00
39243;BME280;29823;47.404;8.566;2023-02-13T11:41:29;98361.22;;;4.73;100.00
39243;BME280;29823;47.404;8.566;2023-02-13T11:43:58;98365.47;;;4.83;100.00
39243;BME280;29823;47.404;8.566;2023-02-13T11:46:42;98356.06;;;5.24;100.00
39243;BME280;29823;47.404;8.566;2023-02-13T11:49:18;98354.94;;;5.26;100.00
39243;BME280;29823;47.404;8.566;2023-02-13T11:51:47;98359.53;;;5.24;100.00
39243;BME280;29823;47.404;8.566;2023-02-13T11:54:22;98352.81;;;5.30;100.00
39243;BME280;29823;47.404;8.566;2023-02-13T11:56:53;98346.97;;;5.26;100.00
39243;BME280;29823;47.404;8.566;2023-02-13T11:59:39;98360.13;;;5.53;100.00
39243;BME280;29823;47.404;8.566;2023-02-13T12:02:17;98327.66;;;5.59;100.00
39243;BME280;29823;47.404;8.566;2023-02-13T12:04:48;98345.22;;;6.11;100.00
39243;BME280;29823;47.404;8.566;2023-02-13T12:07:23;98342.16;;;5.90;100.00
39243;BME280;29823;47.404;8.566;2023-02-13T12:09:56;98343.47;;;6.85;100.00
39243;BME280;29823;47.404;8.566;2023-02-13T12:12:32;98342.25;;;6.56;100.00
39243;BME280;29823;47.404;8.566;2023-02-13T12:15:09;98337.22;;;6.03;100.00
39243;BME280;29823;47.404;8.566;2023-02-13T12:17:43;98327.22;;;6.88;100.00
39243;BME280;29823;47.404;8.566;2023-02-13T12:20:14;98332.09;;;6.51;100.00
39243;BME280;29823;47.404;8.566;2023-02-13T12:22:51;98324.38;;;6.98;100.00
39243;BME280;29823;47.404;8.566;2023-02-13T12:25:33;98311.91;;;7.54;100.00
39243;BME280;29823;47.404;8.566;2023-02-13T12:28:14;98318.88;;;7.55;100.00
39243;BME280;29823;47.404;8.566;2023-02-13T12:34:24;98319.72;;;8.26;100.00
39243;BME280;29823;47.404;8.566;2023-02-13T12:40:06;98300.44;;;9.22;100.00
39243;BME280;29823;47.404;8.566;2023-02-13T12:42:50;98296.19;;;8.68;100.00
39243;BME280;29823;47.404;8.566;2023-02-13T12:45:32;98289.91;;;8.31;100.00
39243;BME280;29823;47.404;8.566;2023-02-13T12:48:10;98299.34;;;9.17;100.00
39243;BME280;29823;47.404;8.566;2023-02-13T12:50:55;98294.81;;;10.06;97.51
39243;BME280;29823;47.404;8.566;2023-02-13T12:53:42;98300.59;;;9.95;94.28
39243;BME280;29823;47.404;8.566;2023-02-13T12:56:25;98299.50;;;10.33;93.79
39243;BME280;29823;47.404;8.566;2023-02-13T12:59:01;98290.19;;;11.21;85.97
39243;BME280;29823;47.404;8.566;2023-02-13T13:01:44;98290.81;;;10.45;88.54
39243;BME280;29823;47.404;8.566;2023-02-13T13:04:20;98286.47;;;9.57;93.71
39243;BME280;29823;47.404;8.566;2023-02-13T13:07:09;98286.34;;;9.36;97.64
39243;BME280;29823;47.404;8.566;2023-02-13T13:09:54;98283.84;;;8.67;100.00
39243;BME280;29823;47.404;8.566;2023-02-13T13:12:35;98284.75;;;8.21;100.00
39243;BME280;29823;47.404;8.566;2023-02-13T13:15:11;98263.25;;;7.76;100.00
39243;BME280;29823;47.404;8.566;2023-02-13T13:17:52;98274.13;;;7.67;100.00
39243;BME280;29823;47.404;8.566;2023-02-13T13:20:38;98270.88;;;7.01;100.00
39243;BME280;29823;47.404;8.566;2023-02-13T13:23:12;98272.69;;;6.92;100.00
39243;BME280;29823;47.404;8.566;2023-02-13T13:25:49;98263.69;;;6.69;100.00
39243;BME280;29823;47.404;8.566;2023-02-13T13:28:21;98257.34;;;6.54;100.00
39243;BME280;29823;47.404;8.566;2023-02-13T13:30:50;98253.78;;;6.14;100.00
39243;BME280;29823;47.404;8.566;2023-02-13T13:33:21;98244.94;;;6.05;100.00
39243;BME280;29823;47.404;8.566;2023-02-13T13:35:59;98248.66;;;6.12;100.00
39243;BME280;29823;47.404;8.566;2023-02-13T13:38:38;98248.34;;;6.23;100.00